PGT9WP LTFJ-LTBS
Flight info
| Callsign | PGT9WP |
|---|---|
| Flight time | 0h 48m |
| Altitude | 34000 |
| Route | ROXUK UT409 NUMTI UT241 DEN/N0436F330 UW87 LAVTA/N0411F270 W87 ATSAL |
| Aircraft | A320/M-SDE3FGHIRWY/LB1 |
Departure
| Time | 2026-04-23 11:36 |
|---|---|
| Airport | Istanbul Sabiha Gökçen International Airport (LTFJ) |
Arrival
| Time | 2026-04-23 12:25 |
|---|---|
| Airport | Dalaman International Airport (LTBS) |
| Time | Latitude | Longitude | Altitude | Speed | Heading |
|---|---|---|---|---|---|
| 2026-04-23 11:17 | 40.90451 | 29.31682 | 321 ft | 0 kts | 154° |
| 2026-04-23 11:29 | 40.90458 | 29.31677 | 321 ft | 4 kts | 153° |
| 2026-04-23 11:29 | 40.90482 | 29.31660 | 319 ft | 4 kts | 145° |
| 2026-04-23 11:29 | 40.90502 | 29.31637 | 321 ft | 4 kts | 127° |
| 2026-04-23 11:29 | 40.90512 | 29.31609 | 320 ft | 3 kts | 70° |
| 2026-04-23 11:30 | 40.90511 | 29.31604 | 320 ft | 0 kts | 64° |
| 2026-04-23 11:31 | 40.90524 | 29.31641 | 321 ft | 8 kts | 64° |
| 2026-04-23 11:32 | 40.90555 | 29.31724 | 321 ft | 10 kts | 64° |
| 2026-04-23 11:32 | 40.90584 | 29.31801 | 319 ft | 9 kts | 63° |
| 2026-04-23 11:32 | 40.90616 | 29.31886 | 320 ft | 11 kts | 64° |
| 2026-04-23 11:32 | 40.90648 | 29.31973 | 320 ft | 10 kts | 64° |
| 2026-04-23 11:33 | 40.90677 | 29.32053 | 321 ft | 9 kts | 64° |
| 2026-04-23 11:33 | 40.90702 | 29.32122 | 320 ft | 8 kts | 64° |
| 2026-04-23 11:33 | 40.90728 | 29.32193 | 321 ft | 8 kts | 64° |
| 2026-04-23 11:33 | 40.90725 | 29.32258 | 321 ft | 9 kts | 124° |
| 2026-04-23 11:34 | 40.90677 | 29.32301 | 321 ft | 8 kts | 152° |
| 2026-04-23 11:34 | 40.90625 | 29.32338 | 319 ft | 9 kts | 141° |
| 2026-04-23 11:34 | 40.90593 | 29.32401 | 321 ft | 9 kts | 126° |
| 2026-04-23 11:34 | 40.90531 | 29.32458 | 320 ft | 12 kts | 152° |
| 2026-04-23 11:35 | 40.90464 | 29.32488 | 319 ft | 10 kts | 180° |
| 2026-04-23 11:35 | 40.90411 | 29.32433 | 319 ft | 9 kts | 244° |
| 2026-04-23 11:35 | 40.90410 | 29.32428 | 319 ft | 2 kts | 244° |
| 2026-04-23 11:35 | 40.90299 | 29.32127 | 319 ft | 73 kts | 244° |
| 2026-04-23 11:36 | 40.89982 | 29.31271 | 319 ft | 132 kts | 244° |
| 2026-04-23 11:36 | 40.89521 | 29.30029 | 577 ft | 157 kts | 244° |
| 2026-04-23 11:36 | 40.89028 | 29.28724 | 1333 ft | 159 kts | 246° |
| 2026-04-23 11:36 | 40.88552 | 29.27405 | 2070 ft | 160 kts | 247° |
| 2026-04-23 11:37 | 40.88046 | 29.26002 | 2519 ft | 180 kts | 243° |
| 2026-04-23 11:37 | 40.87134 | 29.24789 | 2875 ft | 204 kts | 205° |
| 2026-04-23 11:37 | 40.85662 | 29.24631 | 3230 ft | 229 kts | 165° |
| 2026-04-23 11:37 | 40.84063 | 29.25292 | 3649 ft | 253 kts | 159° |
| 2026-04-23 11:38 | 40.82366 | 29.26149 | 4312 ft | 266 kts | 158° |
| 2026-04-23 11:38 | 40.80628 | 29.27066 | 5218 ft | 271 kts | 157° |
| 2026-04-23 11:38 | 40.78864 | 29.27991 | 6151 ft | 274 kts | 158° |
| 2026-04-23 11:38 | 40.77076 | 29.28912 | 7022 ft | 279 kts | 159° |
| 2026-04-23 11:39 | 40.75250 | 29.29838 | 7872 ft | 283 kts | 159° |
| 2026-04-23 11:39 | 40.73394 | 29.30765 | 8730 ft | 287 kts | 160° |
| 2026-04-23 11:39 | 40.71510 | 29.31700 | 9610 ft | 291 kts | 161° |
| 2026-04-23 11:39 | 40.69590 | 29.32652 | 10320 ft | 301 kts | 161° |
| 2026-04-23 11:40 | 40.67553 | 29.33652 | 10609 ft | 325 kts | 161° |
| 2026-04-23 11:40 | 40.65374 | 29.34717 | 11044 ft | 340 kts | 161° |
| 2026-04-23 11:40 | 40.63134 | 29.35814 | 11758 ft | 346 kts | 161° |
| 2026-04-23 11:40 | 40.60862 | 29.36930 | 12553 ft | 350 kts | 161° |
| 2026-04-23 11:41 | 40.58564 | 29.38059 | 13323 ft | 354 kts | 162° |
| 2026-04-23 11:41 | 40.56163 | 29.38757 | 14010 ft | 355 kts | 180° |
| 2026-04-23 11:41 | 40.53732 | 29.38394 | 14638 ft | 353 kts | 198° |
| 2026-04-23 11:41 | 40.51376 | 29.37455 | 15328 ft | 355 kts | 200° |
| 2026-04-23 11:42 | 40.49009 | 29.36485 | 16030 ft | 357 kts | 200° |
| 2026-04-23 11:42 | 40.46631 | 29.35499 | 16729 ft | 359 kts | 201° |
| 2026-04-23 11:42 | 40.44242 | 29.34504 | 17425 ft | 361 kts | 201° |
| 2026-04-23 11:42 | 40.41839 | 29.33508 | 18109 ft | 363 kts | 201° |
| 2026-04-23 11:43 | 40.39424 | 29.32511 | 18727 ft | 365 kts | 201° |
| 2026-04-23 11:43 | 40.36995 | 29.31518 | 19368 ft | 365 kts | 202° |
| 2026-04-23 11:43 | 40.34569 | 29.30534 | 20016 ft | 365 kts | 202° |
| 2026-04-23 11:43 | 40.32149 | 29.29555 | 20677 ft | 364 kts | 203° |
| 2026-04-23 11:44 | 40.29733 | 29.28575 | 21327 ft | 363 kts | 204° |
| 2026-04-23 11:44 | 40.27323 | 29.27595 | 21973 ft | 362 kts | 205° |
| 2026-04-23 11:44 | 40.24917 | 29.26612 | 22606 ft | 361 kts | 205° |
| 2026-04-23 11:44 | 40.22521 | 29.25636 | 23264 ft | 361 kts | 205° |
| 2026-04-23 11:45 | 40.20127 | 29.24664 | 23842 ft | 360 kts | 205° |
| 2026-04-23 11:45 | 40.17734 | 29.23689 | 24323 ft | 361 kts | 206° |
| 2026-04-23 11:45 | 40.15332 | 29.22713 | 24753 ft | 362 kts | 206° |
| 2026-04-23 11:45 | 40.12921 | 29.21730 | 25153 ft | 363 kts | 206° |
| 2026-04-23 11:46 | 40.10503 | 29.20747 | 25519 ft | 364 kts | 206° |
| 2026-04-23 11:46 | 40.08078 | 29.19762 | 25853 ft | 367 kts | 206° |
| 2026-04-23 11:46 | 40.05630 | 29.18769 | 26213 ft | 370 kts | 206° |
| 2026-04-23 11:46 | 40.03165 | 29.17774 | 26592 ft | 372 kts | 206° |
| 2026-04-23 11:47 | 40.00683 | 29.16773 | 26960 ft | 375 kts | 206° |
| 2026-04-23 11:47 | 39.98183 | 29.15765 | 27343 ft | 377 kts | 206° |
| 2026-04-23 11:47 | 39.95668 | 29.14751 | 27716 ft | 380 kts | 206° |
| 2026-04-23 11:47 | 39.93137 | 29.13730 | 28077 ft | 382 kts | 206° |
| 2026-04-23 11:48 | 39.90589 | 29.12701 | 28446 ft | 385 kts | 206° |
| 2026-04-23 11:48 | 39.88023 | 29.11664 | 28791 ft | 387 kts | 206° |
| 2026-04-23 11:48 | 39.85445 | 29.10625 | 29132 ft | 390 kts | 205° |
| 2026-04-23 11:48 | 39.82843 | 29.09580 | 29419 ft | 392 kts | 205° |
| 2026-04-23 11:49 | 39.80227 | 29.08531 | 29670 ft | 395 kts | 205° |
| 2026-04-23 11:49 | 39.77594 | 29.07475 | 29961 ft | 397 kts | 205° |
| 2026-04-23 11:49 | 39.74950 | 29.06413 | 30227 ft | 399 kts | 205° |
| 2026-04-23 11:49 | 39.72324 | 29.05357 | 30473 ft | 402 kts | 205° |
| 2026-04-23 11:50 | 39.69645 | 29.04284 | 30708 ft | 404 kts | 205° |
| 2026-04-23 11:50 | 39.66952 | 29.03208 | 30907 ft | 406 kts | 205° |
| 2026-04-23 11:50 | 39.64240 | 29.02125 | 31119 ft | 409 kts | 205° |
| 2026-04-23 11:50 | 39.61517 | 29.01039 | 31437 ft | 409 kts | 205° |
| 2026-04-23 11:51 | 39.58762 | 28.99943 | 31791 ft | 409 kts | 205° |
| 2026-04-23 11:51 | 39.56034 | 28.98858 | 32130 ft | 410 kts | 205° |
| 2026-04-23 11:51 | 39.53312 | 28.97773 | 32441 ft | 410 kts | 205° |
| 2026-04-23 11:51 | 39.50585 | 28.96686 | 32759 ft | 410 kts | 205° |
| 2026-04-23 11:52 | 39.47854 | 28.95600 | 33041 ft | 411 kts | 205° |
| 2026-04-23 11:52 | 39.45118 | 28.94516 | 33377 ft | 411 kts | 205° |
| 2026-04-23 11:52 | 39.42419 | 28.93447 | 33644 ft | 411 kts | 205° |
| 2026-04-23 11:52 | 39.39681 | 28.92358 | 33904 ft | 412 kts | 205° |
| 2026-04-23 11:53 | 39.36952 | 28.91272 | 33990 ft | 408 kts | 205° |
| 2026-04-23 11:53 | 39.31564 | 28.89140 | 33995 ft | 403 kts | 205° |
| 2026-04-23 11:54 | 39.26173 | 28.87011 | 33993 ft | 402 kts | 205° |
| 2026-04-23 11:54 | 39.20859 | 28.84910 | 33993 ft | 402 kts | 205° |
| 2026-04-23 11:55 | 39.15512 | 28.82798 | 33988 ft | 402 kts | 205° |
| 2026-04-23 11:55 | 39.10158 | 28.80696 | 33978 ft | 402 kts | 205° |
| 2026-04-23 11:56 | 39.04811 | 28.78604 | 33976 ft | 402 kts | 205° |
| 2026-04-23 11:56 | 39.00327 | 28.76846 | 33970 ft | 402 kts | 205° |
| 2026-04-23 11:57 | 38.94981 | 28.74754 | 33982 ft | 402 kts | 205° |
| 2026-04-23 11:57 | 38.89632 | 28.72652 | 33965 ft | 402 kts | 205° |
| 2026-04-23 11:58 | 38.84294 | 28.70562 | 33963 ft | 401 kts | 205° |
| 2026-04-23 11:58 | 38.78946 | 28.68478 | 33954 ft | 401 kts | 205° |
| 2026-04-23 11:59 | 38.73604 | 28.66402 | 33959 ft | 401 kts | 205° |
| 2026-04-23 11:59 | 38.68262 | 28.64325 | 33956 ft | 401 kts | 205° |
| 2026-04-23 12:00 | 38.62917 | 28.62254 | 33962 ft | 401 kts | 205° |
| 2026-04-23 12:00 | 38.57443 | 28.60607 | 33958 ft | 414 kts | 193° |
| 2026-04-23 12:00 | 38.54568 | 28.60634 | 33958 ft | 425 kts | 183° |
| 2026-04-23 12:01 | 38.51623 | 28.60992 | 33954 ft | 425 kts | 183° |
| 2026-04-23 12:01 | 38.45732 | 28.61707 | 33951 ft | 425 kts | 183° |
| 2026-04-23 12:02 | 38.39832 | 28.62411 | 33953 ft | 426 kts | 184° |
| 2026-04-23 12:02 | 38.33938 | 28.63107 | 33784 ft | 425 kts | 184° |
| 2026-04-23 12:02 | 38.30992 | 28.63451 | 33034 ft | 425 kts | 183° |
| 2026-04-23 12:03 | 38.28053 | 28.63793 | 32430 ft | 424 kts | 183° |
| 2026-04-23 12:03 | 38.25128 | 28.64138 | 31850 ft | 420 kts | 183° |
| 2026-04-23 12:03 | 38.22227 | 28.64481 | 31289 ft | 417 kts | 183° |
| 2026-04-23 12:03 | 38.19350 | 28.64821 | 30729 ft | 414 kts | 183° |
| 2026-04-23 12:04 | 38.16499 | 28.65157 | 30183 ft | 410 kts | 183° |
| 2026-04-23 12:04 | 38.13666 | 28.65491 | 29569 ft | 407 kts | 183° |
| 2026-04-23 12:04 | 38.10861 | 28.65820 | 28945 ft | 403 kts | 183° |
| 2026-04-23 12:04 | 38.08079 | 28.66147 | 28358 ft | 399 kts | 183° |
| 2026-04-23 12:05 | 38.05327 | 28.66472 | 27817 ft | 395 kts | 183° |
| 2026-04-23 12:05 | 38.02611 | 28.66791 | 27276 ft | 391 kts | 183° |
| 2026-04-23 12:05 | 37.99908 | 28.67107 | 26754 ft | 388 kts | 183° |
| 2026-04-23 12:05 | 37.97229 | 28.67421 | 26238 ft | 386 kts | 182° |
| 2026-04-23 12:06 | 37.94662 | 28.67721 | 25753 ft | 385 kts | 182° |
| 2026-04-23 12:06 | 37.92000 | 28.68030 | 25258 ft | 383 kts | 182° |
| 2026-04-23 12:06 | 37.86703 | 28.68642 | 24286 ft | 381 kts | 182° |
| 2026-04-23 12:07 | 37.84064 | 28.68949 | 23809 ft | 381 kts | 182° |
| 2026-04-23 12:07 | 37.81434 | 28.69254 | 23305 ft | 378 kts | 182° |
| 2026-04-23 12:07 | 37.78824 | 28.69558 | 22756 ft | 375 kts | 182° |
| 2026-04-23 12:07 | 37.76237 | 28.69860 | 22211 ft | 372 kts | 182° |
| 2026-04-23 12:08 | 37.73664 | 28.70159 | 21679 ft | 370 kts | 182° |
| 2026-04-23 12:08 | 37.71110 | 28.70447 | 21161 ft | 368 kts | 182° |
| 2026-04-23 12:08 | 37.68559 | 28.70667 | 20647 ft | 368 kts | 184° |
| 2026-04-23 12:08 | 37.66006 | 28.70842 | 20139 ft | 365 kts | 184° |
| 2026-04-23 12:09 | 37.63476 | 28.71195 | 19644 ft | 371 kts | 172° |
| 2026-04-23 12:09 | 37.61022 | 28.72313 | 19157 ft | 375 kts | 165° |
| 2026-04-23 12:09 | 37.58609 | 28.73549 | 18683 ft | 374 kts | 165° |
| 2026-04-23 12:09 | 37.56209 | 28.74792 | 18229 ft | 372 kts | 164° |
| 2026-04-23 12:10 | 37.53825 | 28.76030 | 17866 ft | 369 kts | 164° |
| 2026-04-23 12:10 | 37.51455 | 28.77261 | 17462 ft | 367 kts | 164° |
| 2026-04-23 12:10 | 37.49101 | 28.78478 | 17036 ft | 365 kts | 164° |
| 2026-04-23 12:10 | 37.46757 | 28.79688 | 16617 ft | 363 kts | 164° |
| 2026-04-23 12:11 | 37.44425 | 28.80890 | 16210 ft | 362 kts | 164° |
| 2026-04-23 12:11 | 37.42104 | 28.82084 | 15799 ft | 359 kts | 164° |
| 2026-04-23 12:11 | 37.39801 | 28.83268 | 15428 ft | 355 kts | 164° |
| 2026-04-23 12:11 | 37.37525 | 28.84438 | 15075 ft | 351 kts | 164° |
| 2026-04-23 12:12 | 37.35275 | 28.85594 | 14735 ft | 348 kts | 164° |
| 2026-04-23 12:12 | 37.33042 | 28.86738 | 14401 ft | 345 kts | 164° |
| 2026-04-23 12:12 | 37.30861 | 28.87855 | 14064 ft | 342 kts | 164° |
| 2026-04-23 12:12 | 37.28681 | 28.88973 | 13738 ft | 335 kts | 165° |
| 2026-04-23 12:13 | 37.26553 | 28.90065 | 13356 ft | 325 kts | 165° |
| 2026-04-23 12:13 | 37.24497 | 28.91123 | 12984 ft | 315 kts | 165° |
| 2026-04-23 12:13 | 37.22501 | 28.92148 | 12614 ft | 305 kts | 164° |
| 2026-04-23 12:13 | 37.20558 | 28.93143 | 12266 ft | 299 kts | 165° |
| 2026-04-23 12:14 | 37.18660 | 28.94111 | 11898 ft | 291 kts | 165° |
| 2026-04-23 12:14 | 37.16818 | 28.95095 | 11538 ft | 286 kts | 159° |
| 2026-04-23 12:14 | 37.15178 | 28.96470 | 11188 ft | 283 kts | 144° |
| 2026-04-23 12:14 | 37.13730 | 28.98104 | 10847 ft | 279 kts | 143° |
| 2026-04-23 12:15 | 37.12286 | 28.99725 | 10497 ft | 276 kts | 143° |
| 2026-04-23 12:15 | 37.10862 | 29.01322 | 10171 ft | 273 kts | 143° |
| 2026-04-23 12:15 | 37.09453 | 29.02900 | 9772 ft | 270 kts | 143° |
| 2026-04-23 12:15 | 37.08003 | 29.04331 | 9315 ft | 259 kts | 158° |
| 2026-04-23 12:16 | 37.06353 | 29.05046 | 8886 ft | 248 kts | 178° |
| 2026-04-23 12:16 | 37.04657 | 29.04995 | 8473 ft | 241 kts | 198° |
| 2026-04-23 12:16 | 37.03141 | 29.04269 | 8075 ft | 228 kts | 214° |
| 2026-04-23 12:16 | 37.01795 | 29.03270 | 7712 ft | 223 kts | 214° |
| 2026-04-23 12:17 | 37.00469 | 29.02294 | 7342 ft | 220 kts | 213° |
| 2026-04-23 12:17 | 36.99152 | 29.01331 | 6972 ft | 219 kts | 213° |
| 2026-04-23 12:17 | 36.97855 | 29.00383 | 6608 ft | 212 kts | 213° |
| 2026-04-23 12:17 | 36.96606 | 28.99469 | 6230 ft | 203 kts | 213° |
| 2026-04-23 12:18 | 36.95413 | 28.98597 | 5872 ft | 194 kts | 212° |
| 2026-04-23 12:18 | 36.94286 | 28.97771 | 5546 ft | 183 kts | 213° |
| 2026-04-23 12:18 | 36.93301 | 28.96822 | 5188 ft | 175 kts | 222° |
| 2026-04-23 12:18 | 36.92385 | 28.95844 | 4849 ft | 171 kts | 222° |
| 2026-04-23 12:19 | 36.91496 | 28.94904 | 4567 ft | 164 kts | 221° |
| 2026-04-23 12:19 | 36.90641 | 28.93999 | 4289 ft | 159 kts | 222° |
| 2026-04-23 12:19 | 36.89796 | 28.93101 | 4031 ft | 159 kts | 221° |
| 2026-04-23 12:19 | 36.88953 | 28.92204 | 3834 ft | 159 kts | 222° |
| 2026-04-23 12:20 | 36.88106 | 28.91306 | 3696 ft | 159 kts | 221° |
| 2026-04-23 12:20 | 36.87260 | 28.90407 | 3544 ft | 160 kts | 221° |
| 2026-04-23 12:20 | 36.86414 | 28.89509 | 3460 ft | 159 kts | 221° |
| 2026-04-23 12:20 | 36.85546 | 28.88648 | 3409 ft | 159 kts | 213° |
| 2026-04-23 12:21 | 36.84601 | 28.87955 | 3130 ft | 160 kts | 212° |
| 2026-04-23 12:21 | 36.83638 | 28.87256 | 2862 ft | 160 kts | 211° |
| 2026-04-23 12:21 | 36.82678 | 28.86555 | 2608 ft | 160 kts | 211° |
| 2026-04-23 12:21 | 36.81711 | 28.85847 | 2362 ft | 161 kts | 211° |
| 2026-04-23 12:22 | 36.80760 | 28.85154 | 2104 ft | 155 kts | 211° |
| 2026-04-23 12:22 | 36.79849 | 28.84491 | 1875 ft | 148 kts | 211° |
| 2026-04-23 12:22 | 36.78990 | 28.83864 | 1667 ft | 139 kts | 210° |
| 2026-04-23 12:22 | 36.78166 | 28.83264 | 1448 ft | 136 kts | 210° |
| 2026-04-23 12:23 | 36.77359 | 28.82677 | 1252 ft | 133 kts | 210° |
| 2026-04-23 12:23 | 36.76566 | 28.82102 | 1048 ft | 132 kts | 210° |
| 2026-04-23 12:23 | 36.75770 | 28.81523 | 827 ft | 132 kts | 209° |
| 2026-04-23 12:23 | 36.74990 | 28.80956 | 642 ft | 130 kts | 210° |
| 2026-04-23 12:24 | 36.74205 | 28.80385 | 434 ft | 131 kts | 210° |
| 2026-04-23 12:24 | 36.73370 | 28.79911 | 165 ft | 133 kts | 194° |
| 2026-04-23 12:24 | 36.72490 | 28.79647 | 16 ft | 125 kts | 195° |
| 2026-04-23 12:24 | 36.71873 | 28.79438 | 12 ft | 53 kts | 195° |
| 2026-04-23 12:25 | 36.71554 | 28.79331 | 12 ft | 42 kts | 194° |
| 2026-04-23 12:25 | 36.71301 | 28.79246 | 13 ft | 33 kts | 194° |
| 2026-04-23 12:25 | 36.71092 | 28.79177 | 13 ft | 29 kts | 195° |
| 2026-04-23 12:25 | 36.70910 | 28.79114 | 13 ft | 26 kts | 195° |
| 2026-04-23 12:26 | 36.70745 | 28.79044 | 13 ft | 21 kts | 209° |
| 2026-04-23 12:26 | 36.70636 | 28.78947 | 14 ft | 14 kts | 222° |
| 2026-04-23 12:26 | 36.70579 | 28.78875 | 13 ft | 11 kts | 241° |
| 2026-04-23 12:26 | 36.70610 | 28.78805 | 13 ft | 10 kts | 347° |
| 2026-04-23 12:27 | 36.70677 | 28.78821 | 13 ft | 13 kts | 14° |
| 2026-04-23 12:27 | 36.70802 | 28.78862 | 13 ft | 20 kts | 15° |
| 2026-04-23 12:27 | 36.70929 | 28.78905 | 13 ft | 18 kts | 15° |
| 2026-04-23 12:27 | 36.71046 | 28.78946 | 13 ft | 17 kts | 15° |
| 2026-04-23 12:28 | 36.71155 | 28.78983 | 13 ft | 16 kts | 15° |
| 2026-04-23 12:28 | 36.71245 | 28.79015 | 13 ft | 10 kts | 15° |
| 2026-04-23 12:28 | 36.71309 | 28.79025 | 13 ft | 9 kts | 339° |
| 2026-04-23 12:28 | 36.71335 | 28.78965 | 13 ft | 9 kts | 283° |
| 2026-04-23 12:29 | 36.71348 | 28.78891 | 13 ft | 8 kts | 282° |
| 2026-04-23 12:29 | 36.71371 | 28.78841 | 14 ft | 6 kts | 306° |
| 2026-04-23 12:29 | 36.71385 | 28.78801 | 14 ft | 4 kts | 288° |
| 2026-04-23 12:29 | 36.71391 | 28.78776 | 13 ft | 5 kts | 285° |
| 2026-04-23 12:30 | 36.71396 | 28.78750 | 14 ft | 0 kts | 285° |